Time;durP1;ratioP1;P1;durP2;ratioP2;P2;SDS_P1;SDS_P2;PMS_P1;PMS_P2;Temp;Humidity;BMP_temperature;BMP_pressure;BME280_temperature;BME280_humidity;BME280_pressure;Samples;Min_cycle;Max_cycle;Signal;HPM_P1;HPM_P2
2021/09/08 00:02:08;;;;;;;0.50;0.50;;;18.90;99.90;;;;;;4955944;29;20212;-85
2021/09/08 00:04:34;;;;;;;0.57;0.43;;;18.90;99.90;;;;;;4955137;28;20211;-85
2021/09/08 00:06:59;;;;;;;1.30;1.00;;;18.90;99.90;;;;;;4957059;29;20574;-85
2021/09/08 00:09:25;;;;;;;0.87;0.67;;;18.90;99.90;;;;;;4956776;28;20194;-85
2021/09/08 00:11:50;;;;;;;2.40;0.97;;;18.90;99.90;;;;;;4956941;29;20182;-85
2021/09/08 00:14:16;;;;;;;0.63;0.63;;;18.90;99.90;;;;;;4951815;29;20214;-85
2021/09/08 00:16:42;;;;;;;1.03;0.63;;;18.90;99.90;;;;;;4953436;29;20545;-86
2021/09/08 00:19:08;;;;;;;1.03;0.83;;;18.80;99.90;;;;;;4955484;29;20291;-84
2021/09/08 00:21:34;;;;;;;0.20;0.20;;;18.90;99.90;;;;;;4954401;28;20225;-85
2021/09/08 00:23:59;;;;;;;0.80;0.80;;;18.90;99.90;;;;;;4953742;29;20296;-85
2021/09/08 00:26:25;;;;;;;0.70;0.70;;;18.90;99.90;;;;;;4951093;29;20788;-85
2021/09/08 00:28:51;;;;;;;1.90;1.03;;;18.80;99.90;;;;;;4955188;29;20198;-85
2021/09/08 00:31:17;;;;;;;0.40;0.40;;;18.80;99.90;;;;;;4955235;29;20189;-85
2021/09/08 00:33:43;;;;;;;1.13;1.10;;;18.80;99.90;;;;;;4954838;29;20284;-85
2021/09/08 00:36:08;;;;;;;0.93;0.60;;;18.80;99.90;;;;;;4953350;29;20209;-85
2021/09/08 00:38:34;;;;;;;1.80;0.93;;;18.80;99.90;;;;;;4954919;29;20192;-85
2021/09/08 00:40:59;;;;;;;0.60;0.60;;;18.70;99.90;;;;;;4955116;29;20566;-85
2021/09/08 00:43:25;;;;;;;0.63;0.63;;;18.80;99.90;;;;;;4954751;29;20211;-85
2021/09/08 00:45:52;;;;;;;0.30;0.30;;;18.70;99.90;;;;;;4954653;28;20207;-85
2021/09/08 00:48:18;;;;;;;0.60;0.60;;;18.60;99.90;;;;;;4954875;29;20605;-85
2021/09/08 00:50:44;;;;;;;0.70;0.70;;;18.50;99.90;;;;;;4954920;29;20189;-85
2021/09/08 00:53:12;;;;;;;0.43;0.43;;;18.50;99.90;;;;;;4954124;29;20260;-85
2021/09/08 00:55:38;;;;;;;2.07;0.70;;;18.50;99.90;;;;;;4954356;28;20219;-85
2021/09/08 00:58:04;;;;;;;1.30;0.83;;;18.40;99.90;;;;;;4956120;29;20232;-85
2021/09/08 01:00:29;;;;;;;0.53;0.50;;;18.30;99.90;;;;;;4954699;29;20216;-85
2021/09/08 01:02:55;;;;;;;0.70;0.70;;;18.20;99.90;;;;;;4954654;29;20201;-85
2021/09/08 01:05:23;;;;;;;0.80;0.67;;;18.10;99.90;;;;;;4953988;28;20684;-85
2021/09/08 01:07:49;;;;;;;0.43;0.43;;;18.00;99.90;;;;;;4955490;28;20268;-84
2021/09/08 01:10:15;;;;;;;0.70;0.70;;;18.00;99.90;;;;;;4954569;29;20697;-85
2021/09/08 01:12:42;;;;;;;0.50;0.47;;;17.90;99.90;;;;;;4954551;29;20189;-85
2021/09/08 01:15:08;;;;;;;0.50;0.50;;;17.90;99.90;;;;;;4952750;28;20632;-85
2021/09/08 01:17:34;;;;;;;1.27;0.97;;;17.90;99.90;;;;;;4951243;29;20279;-85
2021/09/08 01:20:00;;;;;;;1.30;0.70;;;17.90;99.90;;;;;;4953987;29;20211;-86
2021/09/08 01:22:34;;;;;;;1.20;0.93;;;17.80;99.90;;;;;;4954220;29;20674;-86
2021/09/08 01:25:00;;;;;;;0.93;0.47;;;17.80;99.90;;;;;;4950675;29;20844;-85
2021/09/08 01:27:26;;;;;;;1.00;0.63;;;17.90;99.90;;;;;;4949989;29;20183;-85
2021/09/08 01:29:52;;;;;;;1.17;0.90;;;17.70;99.90;;;;;;4953713;29;20615;-86
2021/09/08 01:32:17;;;;;;;1.03;0.93;;;17.70;99.90;;;;;;4953942;28;20662;-86
2021/09/08 01:34:43;;;;;;;0.80;0.80;;;17.60;99.90;;;;;;4952842;28;20209;-86
2021/09/08 01:37:12;;;;;;;1.03;0.73;;;17.50;99.90;;;;;;4948190;29;20647;-86
2021/09/08 01:39:37;;;;;;;1.27;0.80;;;17.50;99.90;;;;;;4952317;29;20193;-85
2021/09/08 01:42:04;;;;;;;2.10;1.77;;;17.50;99.90;;;;;;4953382;29;20365;-86
2021/09/08 01:44:29;;;;;;;1.10;0.90;;;17.50;99.90;;;;;;4948749;29;20198;-85
2021/09/08 01:46:56;;;;;;;2.27;1.23;;;17.40;99.90;;;;;;4954435;29;20251;-85
2021/09/08 01:49:22;;;;;;;1.13;1.07;;;17.40;99.90;;;;;;4953692;29;20220;-85
2021/09/08 01:51:48;;;;;;;2.90;1.70;;;17.50;99.90;;;;;;4954814;28;20562;-85
2021/09/08 01:54:14;;;;;;;2.87;1.43;;;17.40;99.90;;;;;;4948941;29;20634;-87
2021/09/08 01:56:40;;;;;;;0.30;0.30;;;17.40;99.90;;;;;;4950922;29;20260;-85
2021/09/08 01:59:06;;;;;;;1.10;0.67;;;17.40;99.90;;;;;;4953689;29;20191;-86
2021/09/08 02:01:31;;;;;;;1.17;0.90;;;17.50;99.90;;;;;;4953173;29;20256;-86
2021/09/08 02:03:57;;;;;;;0.70;0.67;;;17.40;99.90;;;;;;4953293;29;20221;-86
2021/09/08 02:06:25;;;;;;;1.13;0.93;;;17.50;99.90;;;;;;4948498;28;20205;-85
2021/09/08 02:08:58;;;;;;;0.80;0.80;;;17.60;99.90;;;;;;4947397;28;20193;-86
2021/09/08 02:11:25;;;;;;;0.40;0.40;;;17.60;99.90;;;;;;4952627;29;20191;-86
2021/09/08 02:13:51;;;;;;;0.57;0.57;;;17.60;99.90;;;;;;4953072;29;20230;-86
2021/09/08 02:16:20;;;;;;;0.53;0.53;;;17.60;99.90;;;;;;4952801;28;20225;-86
2021/09/08 02:18:46;;;;;;;1.27;0.83;;;17.50;99.90;;;;;;4969319;28;20560;-86
2021/09/08 02:21:12;;;;;;;1.07;0.97;;;17.40;99.90;;;;;;4953019;29;20275;-86
2021/09/08 02:23:37;;;;;;;1.53;0.57;;;17.40;99.90;;;;;;4952997;29;20741;-85
2021/09/08 02:26:03;;;;;;;1.50;0.53;;;17.40;99.90;;;;;;4953098;29;20353;-86
2021/09/08 02:28:28;;;;;;;1.80;0.87;;;17.40;99.90;;;;;;4953175;29;20196;-86
2021/09/08 02:30:54;;;;;;;0.73;0.73;;;17.30;99.90;;;;;;4952664;29;20605;-87
2021/09/08 02:33:20;;;;;;;0.80;0.70;;;17.30;99.90;;;;;;4953311;29;20189;-86
2021/09/08 02:35:45;;;;;;;1.20;0.50;;;17.40;99.90;;;;;;4952515;28;20244;-85
2021/09/08 02:38:11;;;;;;;0.87;0.60;;;17.50;99.90;;;;;;4953053;29;20220;-85
2021/09/08 02:40:36;;;;;;;1.30;1.10;;;17.50;99.90;;;;;;4952649;29;20216;-86
2021/09/08 02:43:02;;;;;;;4.00;0.60;;;17.60;99.90;;;;;;4952808;29;20210;-85
2021/09/08 02:45:28;;;;;;;1.10;0.70;;;17.80;99.90;;;;;;4951901;29;20210;-86
2021/09/08 02:47:53;;;;;;;0.83;0.40;;;17.70;99.90;;;;;;4954019;29;20659;-85
2021/09/08 02:50:19;;;;;;;2.17;0.73;;;17.80;99.90;;;;;;4952669;29;20563;-86
2021/09/08 02:52:44;;;;;;;0.73;0.60;;;17.90;99.90;;;;;;4952708;29;20216;-85
2021/09/08 02:55:10;;;;;;;0.40;0.40;;;17.90;99.90;;;;;;4952100;29;20212;-85
2021/09/08 02:57:36;;;;;;;0.83;0.83;;;17.90;99.90;;;;;;4952840;29;20196;-86
2021/09/08 03:00:02;;;;;;;2.27;0.80;;;18.00;99.90;;;;;;4952523;29;20214;-86
2021/09/08 03:02:28;;;;;;;0.93;0.73;;;17.90;99.90;;;;;;4952639;29;20209;-85
2021/09/08 03:04:53;;;;;;;1.67;1.33;;;17.80;99.90;;;;;;4952091;29;20256;-85
2021/09/08 03:07:19;;;;;;;0.37;0.37;;;17.90;99.90;;;;;;4946657;28;20184;-85
2021/09/08 03:09:44;;;;;;;0.43;0.43;;;17.90;99.90;;;;;;4946013;29;20181;-85
2021/09/08 03:12:10;;;;;;;0.77;0.77;;;17.80;99.90;;;;;;4952077;29;20193;-86
2021/09/08 03:14:36;;;;;;;0.67;0.67;;;17.80;99.90;;;;;;4951588;29;20216;-85
2021/09/08 03:17:01;;;;;;;1.27;1.20;;;17.70;99.90;;;;;;4953357;28;20265;-85
2021/09/08 03:19:27;;;;;;;0.57;0.57;;;17.70;99.90;;;;;;4947395;29;20193;-85
2021/09/08 03:21:52;;;;;;;0.40;0.40;;;17.70;99.90;;;;;;4953256;29;20197;-85
2021/09/08 03:24:18;;;;;;;0.47;0.47;;;17.70;99.90;;;;;;4951592;28;20211;-85
2021/09/08 03:26:43;;;;;;;0.80;0.80;;;17.70;99.90;;;;;;4947278;28;20236;-85
2021/09/08 03:29:09;;;;;;;1.37;0.57;;;17.70;99.90;;;;;;4952371;29;20564;-86
2021/09/08 03:31:35;;;;;;;1.00;1.00;;;17.70;99.90;;;;;;4951649;29;20188;-86
2021/09/08 03:34:00;;;;;;;0.30;0.30;;;17.70;99.90;;;;;;4952059;29;20600;-85
2021/09/08 03:36:26;;;;;;;1.63;1.10;;;17.70;99.90;;;;;;4951828;29;20216;-85
2021/09/08 03:38:51;;;;;;;0.43;0.43;;;17.60;99.90;;;;;;4953519;28;20185;-85
2021/09/08 03:41:17;;;;;;;1.17;1.10;;;17.60;99.90;;;;;;4951705;29;20224;-85
2021/09/08 03:43:43;;;;;;;0.50;0.50;;;17.60;99.90;;;;;;4951568;29;20301;-85
2021/09/08 03:46:08;;;;;;;2.00;1.13;;;17.50;99.90;;;;;;4951131;28;20247;-85
2021/09/08 03:48:34;;;;;;;0.63;0.63;;;17.50;99.90;;;;;;4952091;29;20185;-85
2021/09/08 03:51:00;;;;;;;0.73;0.73;;;17.50;99.90;;;;;;4951376;29;20610;-85
2021/09/08 03:53:25;;;;;;;1.10;0.80;;;17.40;99.90;;;;;;4951386;29;20199;-85
2021/09/08 03:55:51;;;;;;;0.63;0.63;;;17.30;99.90;;;;;;4952529;28;20226;-85
2021/09/08 03:58:16;;;;;;;1.07;0.57;;;17.20;99.90;;;;;;4955336;29;20217;-86
2021/09/08 04:00:42;;;;;;;2.23;0.77;;;17.10;99.90;;;;;;4954801;29;20189;-85
2021/09/08 04:03:09;;;;;;;0.40;0.40;;;16.90;99.90;;;;;;4955084;29;20212;-85
2021/09/08 04:05:34;;;;;;;1.67;1.17;;;16.90;99.90;;;;;;4956243;29;20236;-85
2021/09/08 04:08:00;;;;;;;1.40;0.53;;;16.80;99.90;;;;;;4955545;29;20181;-86
2021/09/08 04:10:26;;;;;;;1.07;0.70;;;16.70;99.90;;;;;;4953997;28;20691;-85
2021/09/08 04:12:51;;;;;;;2.80;1.30;;;16.60;99.90;;;;;;4949429;28;20229;-85
2021/09/08 04:15:17;;;;;;;1.13;0.50;;;16.60;99.90;;;;;;4950826;29;20213;-86
2021/09/08 04:17:43;;;;;;;0.77;0.70;;;16.60;99.90;;;;;;4968103;28;20212;-85
2021/09/08 04:20:09;;;;;;;0.50;0.50;;;16.80;99.90;;;;;;4955116;29;20217;-85
2021/09/08 04:22:35;;;;;;;1.37;0.50;;;16.60;99.90;;;;;;4949340;29;20224;-85
2021/09/08 04:25:01;;;;;;;0.30;0.30;;;16.60;99.90;;;;;;4949694;28;20205;-85
2021/09/08 04:27:27;;;;;;;0.70;0.70;;;16.60;99.90;;;;;;4947796;29;20235;-85
2021/09/08 04:29:52;;;;;;;0.53;0.53;;;16.60;99.90;;;;;;4955338;29;20208;-85
2021/09/08 04:32:18;;;;;;;0.90;0.63;;;16.50;99.90;;;;;;4952368;29;20196;-86
2021/09/08 04:34:43;;;;;;;0.83;0.60;;;16.60;99.90;;;;;;4954782;28;20216;-85
2021/09/08 04:37:09;;;;;;;3.03;0.70;;;16.50;99.90;;;;;;4954675;29;20584;-86
2021/09/08 04:39:36;;;;;;;1.23;0.70;;;16.50;99.90;;;;;;4955471;29;20251;-86
2021/09/08 04:42:01;;;;;;;0.77;0.70;;;16.50;99.90;;;;;;4954313;29;20267;-85
2021/09/08 04:44:27;;;;;;;0.67;0.67;;;16.50;99.90;;;;;;4953928;29;20606;-85
2021/09/08 04:46:52;;;;;;;0.90;0.50;;;16.50;99.90;;;;;;4954525;29;20181;-85
2021/09/08 04:49:18;;;;;;;0.77;0.77;;;16.70;99.90;;;;;;4954613;29;20213;-85
2021/09/08 04:51:43;;;;;;;1.03;0.60;;;16.70;99.90;;;;;;4954001;29;20228;-85
2021/09/08 04:54:09;;;;;;;0.97;0.97;;;16.60;99.90;;;;;;4951309;28;20191;-84
2021/09/08 04:56:36;;;;;;;1.13;0.83;;;16.40;99.90;;;;;;4953427;29;20239;-85
2021/09/08 04:59:01;;;;;;;1.27;0.70;;;16.30;99.90;;;;;;4955076;28;20177;-83
2021/09/08 05:01:27;;;;;;;1.07;0.97;;;16.20;99.90;;;;;;4959539;28;20221;-83
2021/09/08 05:03:52;;;;;;;0.93;0.90;;;16.30;99.90;;;;;;4954787;29;20242;-84
2021/09/08 05:06:18;;;;;;;0.97;0.57;;;16.40;99.90;;;;;;4955529;28;20212;-84
2021/09/08 05:08:45;;;;;;;0.93;0.60;;;16.50;99.90;;;;;;4953555;29;20225;-83
2021/09/08 05:11:12;;;;;;;1.33;0.60;;;16.70;99.90;;;;;;4974861;28;20216;-84
2021/09/08 05:13:37;;;;;;;5.10;0.60;;;16.70;99.90;;;;;;4955930;28;20201;-84
2021/09/08 05:16:03;;;;;;;0.57;0.57;;;16.70;99.90;;;;;;4953658;29;20224;-84
2021/09/08 05:18:29;;;;;;;1.43;0.83;;;16.60;99.90;;;;;;4956762;29;22325;-86
2021/09/08 05:20:55;;;;;;;0.73;0.70;;;16.50;99.90;;;;;;4955216;29;20200;-85
2021/09/08 05:23:21;;;;;;;3.17;1.80;;;16.50;99.90;;;;;;4951751;29;20208;-85
2021/09/08 05:25:47;;;;;;;1.60;1.43;;;16.40;99.90;;;;;;4953382;28;20581;-86
2021/09/08 05:28:12;;;;;;;0.70;0.70;;;16.30;99.90;;;;;;4953274;29;20555;-86
2021/09/08 05:30:38;;;;;;;0.43;0.43;;;16.40;99.90;;;;;;4951598;29;20193;-85
2021/09/08 05:33:04;;;;;;;0.33;0.33;;;16.50;99.90;;;;;;4950959;29;20656;-85
2021/09/08 05:35:29;;;;;;;1.90;0.60;;;16.70;99.90;;;;;;4953355;28;20216;-85
2021/09/08 05:37:55;;;;;;;0.53;0.53;;;16.80;99.90;;;;;;4951186;28;20688;-85
2021/09/08 05:40:20;;;;;;;1.27;1.17;;;16.90;99.90;;;;;;4954245;29;20195;-86
2021/09/08 05:42:46;;;;;;;0.77;0.67;;;17.00;99.90;;;;;;4952638;29;20705;-85
2021/09/08 05:45:11;;;;;;;1.57;0.60;;;16.90;99.90;;;;;;4952614;28;20743;-85
2021/09/08 05:47:37;;;;;;;1.13;1.00;;;16.90;99.90;;;;;;4949790;29;20188;-86
2021/09/08 05:50:03;;;;;;;0.70;0.70;;;16.80;99.90;;;;;;4952865;28;20209;-86
2021/09/08 05:52:29;;;;;;;0.80;0.80;;;16.80;99.90;;;;;;4966376;28;20192;-85
2021/09/08 05:54:54;;;;;;;1.17;1.10;;;16.90;99.90;;;;;;4952383;29;20584;-85
2021/09/08 05:57:20;;;;;;;0.67;0.63;;;17.00;99.90;;;;;;4952836;29;20201;-85
2021/09/08 05:59:46;;;;;;;2.23;1.13;;;17.20;99.90;;;;;;4951507;29;20189;-85
2021/09/08 06:02:11;;;;;;;1.37;1.27;;;17.30;99.90;;;;;;4952588;29;20647;-85
2021/09/08 06:04:37;;;;;;;0.97;0.70;;;17.40;99.90;;;;;;4952603;28;20215;-86
2021/09/08 06:07:03;;;;;;;0.50;0.50;;;17.50;99.90;;;;;;4951347;29;20193;-86
2021/09/08 06:09:28;;;;;;;0.63;0.63;;;17.50;99.90;;;;;;4950377;28;20185;-86
2021/09/08 06:11:57;;;;;;;2.30;0.80;;;17.60;99.90;;;;;;4952859;29;20177;-85
2021/09/08 06:14:24;;;;;;;1.40;1.30;;;17.70;99.90;;;;;;4952086;29;20703;-86
2021/09/08 06:16:49;;;;;;;1.07;1.00;;;17.90;99.90;;;;;;4952538;29;20195;-85
2021/09/08 06:19:15;;;;;;;1.23;1.13;;;18.00;99.90;;;;;;4951868;28;20538;-85
2021/09/08 06:21:40;;;;;;;1.00;0.90;;;18.10;99.90;;;;;;4952189;29;20212;-85
2021/09/08 06:24:06;;;;;;;2.07;0.80;;;18.30;99.90;;;;;;4951803;28;20209;-86
2021/09/08 06:26:32;;;;;;;0.57;0.37;;;18.50;99.90;;;;;;4949074;28;20193;-85
2021/09/08 06:28:57;;;;;;;1.20;0.83;;;18.60;99.90;;;;;;4950193;28;20204;-85
2021/09/08 06:31:23;;;;;;;3.50;0.93;;;18.80;99.90;;;;;;4947815;28;20553;-84
2021/09/08 06:33:50;;;;;;;1.73;1.37;;;18.90;99.90;;;;;;4984588;28;20665;-85
2021/09/08 06:36:16;;;;;;;1.23;0.90;;;19.00;99.90;;;;;;4948347;29;20779;-85
2021/09/08 06:38:41;;;;;;;2.33;0.97;;;19.10;99.90;;;;;;4950802;28;20185;-84
2021/09/08 06:41:07;;;;;;;1.77;1.67;;;19.10;99.90;;;;;;4953854;29;20209;-84
2021/09/08 06:43:32;;;;;;;1.00;0.93;;;19.20;99.90;;;;;;4952479;29;20220;-85
2021/09/08 06:45:58;;;;;;;1.57;1.00;;;19.40;99.90;;;;;;4948403;28;20198;-85
2021/09/08 06:48:24;;;;;;;0.70;0.70;;;19.60;99.90;;;;;;4949953;29;20190;-84
2021/09/08 06:50:49;;;;;;;1.40;0.60;;;19.90;99.90;;;;;;4953974;29;20711;-84
2021/09/08 06:53:15;;;;;;;2.37;1.90;;;20.00;99.90;;;;;;4951150;29;20202;-83
2021/09/08 06:55:40;;;;;;;2.23;1.37;;;19.90;99.90;;;;;;4952992;28;20729;-85
2021/09/08 06:58:06;;;;;;;1.13;0.83;;;20.00;99.90;;;;;;4949237;28;20674;-84
2021/09/08 07:00:32;;;;;;;1.83;1.30;;;20.20;99.90;;;;;;4951560;29;20556;-84
2021/09/08 07:02:58;;;;;;;1.40;0.93;;;20.20;99.90;;;;;;4967085;28;20216;-84
2021/09/08 07:05:24;;;;;;;0.83;0.83;;;20.50;99.90;;;;;;4951141;28;20638;-84
2021/09/08 07:07:50;;;;;;;2.37;1.67;;;20.60;99.90;;;;;;4951373;29;20662;-87
2021/09/08 07:10:16;;;;;;;2.90;2.07;;;20.50;99.90;;;;;;4952082;29;20189;-88
2021/09/08 07:12:41;;;;;;;1.63;1.17;;;20.60;99.90;;;;;;4952432;29;20677;-88
2021/09/08 07:15:07;;;;;;;1.50;1.00;;;20.70;99.90;;;;;;4951856;29;20217;-88
2021/09/08 07:17:43;;;;;;;2.30;1.20;;;21.00;99.90;;;;;;4952522;29;20204;-86
2021/09/08 07:20:09;;;;;;;3.13;1.13;;;20.80;99.90;;;;;;4951619;29;20192;-88
2021/09/08 07:22:35;;;;;;;2.33;1.17;;;21.00;99.90;;;;;;4952553;29;20279;-88
2021/09/08 07:25:01;;;;;;;6.20;2.27;;;20.80;99.90;;;;;;4952960;28;20211;-88
2021/09/08 07:27:26;;;;;;;2.00;1.43;;;20.70;99.90;;;;;;4952846;29;20197;-88
2021/09/08 07:30:00;;;;;;;2.30;1.70;;;20.90;99.90;;;;;;4952565;28;20332;-89
2021/09/08 07:32:26;;;;;;;2.60;2.13;;;20.60;99.90;;;;;;4956273;29;20662;-88
2021/09/08 07:35:02;;;;;;;3.63;1.07;;;20.70;99.90;;;;;;4955634;28;20228;-88
2021/09/08 07:37:28;;;;;;;2.07;1.73;;;21.10;99.90;;;;;;4955952;29;20219;-88
2021/09/08 07:39:54;;;;;;;1.53;1.43;;;20.80;99.90;;;;;;4987947;28;20667;-88
2021/09/08 07:42:19;;;;;;;1.30;1.20;;;21.00;99.90;;;;;;4955120;28;20652;-83
2021/09/08 07:44:45;;;;;;;1.70;1.23;;;21.10;99.90;;;;;;4953733;29;20588;-84
2021/09/08 07:47:10;;;;;;;1.23;1.10;;;21.40;99.90;;;;;;4958094;28;20185;-84
2021/09/08 07:49:37;;;;;;;1.37;1.27;;;21.40;99.90;;;;;;4954391;28;20289;-84
2021/09/08 07:52:03;;;;;;;1.57;1.23;;;21.40;99.90;;;;;;4954461;29;20189;-84
2021/09/08 07:54:30;;;;;;;0.97;0.93;;;21.40;99.90;;;;;;4953832;28;20209;-84
2021/09/08 07:56:56;;;;;;;1.93;1.67;;;21.50;99.90;;;;;;4954417;29;20204;-83
2021/09/08 07:59:21;;;;;;;2.17;1.97;;;21.60;99.90;;;;;;4952013;28;20185;-84
2021/09/08 08:01:49;;;;;;;3.30;1.90;;;21.60;99.90;;;;;;4955326;29;20189;-86
2021/09/08 08:04:15;;;;;;;1.73;1.13;;;21.50;99.90;;;;;;4952134;28;20209;-85
2021/09/08 08:06:41;;;;;;;4.93;1.10;;;21.90;99.90;;;;;;4955417;29;20239;-86
2021/09/08 08:09:06;;;;;;;2.13;1.60;;;22.00;99.90;;;;;;4959493;28;20280;-86
2021/09/08 08:11:34;;;;;;;1.70;0.87;;;22.20;99.90;;;;;;4954852;29;20196;-85
2021/09/08 08:13:59;;;;;;;1.67;1.57;;;22.30;99.90;;;;;;4953675;29;20196;-85
2021/09/08 08:16:25;;;;;;;1.90;1.60;;;22.70;99.90;;;;;;4956097;28;20231;-86
2021/09/08 08:18:51;;;;;;;1.60;1.40;;;22.90;99.90;;;;;;4953332;29;20219;-86
2021/09/08 08:21:16;;;;;;;4.00;1.97;;;22.90;99.90;;;;;;4954216;29;20192;-85
2021/09/08 08:23:42;;;;;;;3.03;2.60;;;23.10;99.90;;;;;;4953450;28;20227;-85
2021/09/08 08:26:08;;;;;;;3.77;2.67;;;22.50;99.90;;;;;;4953634;28;20227;-86
2021/09/08 08:28:34;;;;;;;2.07;1.73;;;22.40;99.90;;;;;;4955430;28;20748;-86
2021/09/08 08:30:59;;;;;;;3.10;1.23;;;22.20;99.90;;;;;;4955781;28;20181;-86
2021/09/08 08:33:29;;;;;;;3.63;1.73;;;22.10;99.90;;;;;;4953434;29;20196;-86
2021/09/08 08:35:55;;;;;;;1.47;1.37;;;22.30;99.90;;;;;;4954511;28;20220;-86
2021/09/08 08:38:20;;;;;;;1.77;1.47;;;22.20;99.90;;;;;;4954416;29;20189;-85
2021/09/08 08:40:48;;;;;;;2.30;1.93;;;22.70;99.90;;;;;;4954041;29;20336;-86
2021/09/08 08:43:13;;;;;;;1.43;1.30;;;23.00;99.90;;;;;;4953098;28;20240;-86
2021/09/08 08:45:39;;;;;;;1.80;1.20;;;23.00;99.90;;;;;;4954175;28;20205;-86
2021/09/08 08:48:05;;;;;;;1.57;1.27;;;23.30;99.90;;;;;;4953446;28;20670;-86
2021/09/08 08:50:31;;;;;;;3.77;2.00;;;23.60;99.90;;;;;;4954444;29;20185;-86
2021/09/08 08:52:58;;;;;;;2.37;1.60;;;23.40;99.90;;;;;;4952317;29;20216;-86
2021/09/08 08:55:25;;;;;;;1.53;1.43;;;23.20;99.90;;;;;;4955291;28;20576;-86
2021/09/08 08:57:51;;;;;;;1.27;1.17;;;23.40;99.90;;;;;;4953766;29;20219;-86
2021/09/08 09:00:22;;;;;;;1.90;1.30;;;23.60;99.90;;;;;;4953036;29;20669;-87
2021/09/08 09:02:49;;;;;;;2.17;1.97;;;23.40;99.90;;;;;;4970015;28;20220;-86
2021/09/08 09:06:01;;;;;;;2.97;1.40;;;23.80;99.90;;;;;;4953885;29;20687;-86
2021/09/08 09:08:32;;;;;;;1.27;1.17;;;23.80;99.90;;;;;;4934630;29;20669;-86
2021/09/08 09:11:00;;;;;;;1.27;1.17;;;23.40;99.90;;;;;;4952865;29;20201;-86
2021/09/08 09:13:34;;;;;;;1.57;1.47;;;23.70;99.90;;;;;;4948260;28;20200;-86
2021/09/08 09:16:08;;;;;;;1.20;1.07;;;23.50;99.90;;;;;;4957376;28;20295;-86
2021/09/08 09:18:44;;;;;;;1.70;1.60;;;24.00;99.90;;;;;;4953352;29;20284;-86
2021/09/08 09:21:15;;;;;;;1.40;1.30;;;24.30;99.90;;;;;;4953161;29;20192;-86
2021/09/08 09:23:52;;;;;;;3.03;2.33;;;24.10;99.90;;;;;;4951751;29;20205;-87
2021/09/08 09:26:23;;;;;;;2.40;1.77;;;23.90;99.90;;;;;;4946919;28;20208;-86
2021/09/08 09:28:50;;;;;;;0.97;0.97;;;23.60;99.90;;;;;;4947567;28;20693;-87
2021/09/08 09:31:18;;;;;;;1.53;1.43;;;24.20;99.90;;;;;;4951811;28;20186;-87
2021/09/08 09:33:45;;;;;;;1.07;1.03;;;23.60;99.90;;;;;;4953547;28;20193;-86
2021/09/08 09:36:20;;;;;;;2.40;1.30;;;23.80;99.90;;;;;;4952740;28;20741;-86
2021/09/08 09:38:48;;;;;;;1.83;1.40;;;23.90;99.90;;;;;;4952285;29;20733;-86
2021/09/08 09:41:20;;;;;;;1.40;1.30;;;23.90;99.90;;;;;;4952076;29;20243;-83
2021/09/08 09:43:46;;;;;;;1.20;0.83;;;23.90;99.90;;;;;;4950944;28;20237;-85
2021/09/08 09:46:13;;;;;;;1.40;1.17;;;24.10;99.90;;;;;;4952221;29;20232;-86
2021/09/08 09:48:39;;;;;;;2.17;0.97;;;24.30;99.90;;;;;;4953561;29;20185;-86
2021/09/08 09:51:08;;;;;;;1.27;1.17;;;24.60;99.90;;;;;;4953559;29;20195;-86
2021/09/08 09:53:33;;;;;;;1.20;1.03;;;24.80;99.90;;;;;;4953048;28;20188;-86
2021/09/08 09:55:59;;;;;;;1.70;1.33;;;24.90;99.90;;;;;;4953360;29;20205;-86
2021/09/08 09:58:25;;;;;;;1.17;1.07;;;25.00;99.90;;;;;;4954772;29;20189;-86
2021/09/08 10:00:52;;;;;;;1.97;1.23;;;25.10;99.90;;;;;;4952559;29;20723;-86
2021/09/08 10:03:22;;;;;;;1.03;0.93;;;25.30;99.90;;;;;;4951518;29;20220;-86
2021/09/08 10:05:48;;;;;;;1.53;1.43;;;25.60;99.90;;;;;;4951800;29;20236;-87
2021/09/08 10:08:19;;;;;;;1.53;1.40;;;25.70;99.90;;;;;;4954571;29;20191;-86
2021/09/08 10:10:48;;;;;;;2.97;2.27;;;25.80;99.90;;;;;;4951459;29;20181;-86
2021/09/08 10:13:23;;;;;;;2.63;1.30;;;26.20;99.90;;;;;;4952799;29;20189;-86
2021/09/08 10:15:50;;;;;;;1.73;1.17;;;25.70;99.90;;;;;;4954271;28;20212;-86
2021/09/08 10:18:25;;;;;;;1.17;1.07;;;26.00;99.90;;;;;;4953264;29;20189;-86
2021/09/08 10:21:00;;;;;;;0.90;0.90;;;25.60;99.90;;;;;;4954296;29;20188;-86
2021/09/08 10:23:26;;;;;;;1.80;1.07;;;25.10;99.90;;;;;;4952713;29;20216;-86
2021/09/08 10:25:56;;;;;;;1.17;1.00;;;25.00;99.90;;;;;;4952609;29;20287;-86
2021/09/08 10:28:25;;;;;;;1.70;1.43;;;25.30;99.90;;;;;;4968966;28;20220;-86
2021/09/08 10:30:51;;;;;;;2.17;1.87;;;25.20;99.90;;;;;;4954200;28;20672;-86
2021/09/08 10:33:17;;;;;;;1.47;1.27;;;25.30;99.90;;;;;;4952851;29;20185;-86
2021/09/08 10:35:43;;;;;;;1.40;1.30;;;25.40;99.90;;;;;;4953026;29;20205;-86
2021/09/08 10:38:16;;;;;;;1.93;1.73;;;25.70;99.90;;;;;;4952765;29;20189;-86
2021/09/08 10:40:43;;;;;;;1.60;1.50;;;25.50;99.90;;;;;;4952057;29;20276;-86
2021/09/08 10:43:09;;;;;;;1.53;0.97;;;25.80;99.90;;;;;;4954021;28;20773;-86
2021/09/08 10:45:46;;;;;;;0.70;0.70;;;25.90;99.90;;;;;;4952568;28;20233;-86
2021/09/08 10:48:43;;;;;;;1.97;1.50;;;26.20;99.90;;;;;;4946879;29;20654;-86
2021/09/08 10:51:16;;;;;;;3.07;1.53;;;25.70;99.90;;;;;;4952184;29;20196;-86
2021/09/08 10:53:41;;;;;;;1.63;1.00;;;25.50;99.90;;;;;;4952404;29;20193;-86
2021/09/08 10:56:08;;;;;;;1.03;0.90;;;25.80;99.90;;;;;;4952478;28;20209;-86
2021/09/08 10:58:56;;;;;;;2.17;1.60;;;26.10;99.90;;;;;;4952727;29;20196;-86
2021/09/08 11:01:23;;;;;;;1.00;0.87;;;26.40;99.90;;;;;;4942727;29;20189;-87
2021/09/08 11:03:50;;;;;;;2.67;1.60;;;26.20;99.90;;;;;;4952038;29;20213;-86
2021/09/08 11:06:17;;;;;;;1.80;1.00;;;25.60;99.90;;;;;;4955159;28;20287;-86
2021/09/08 11:08:44;;;;;;;1.40;1.30;;;26.20;99.90;;;;;;4957522;29;20189;-86
2021/09/08 11:11:19;;;;;;;2.20;1.67;;;26.20;99.90;;;;;;4956850;28;20310;-86
2021/09/08 11:13:47;;;;;;;2.60;1.60;;;26.10;99.90;;;;;;4956123;29;20188;-86
2021/09/08 11:16:18;;;;;;;1.07;0.90;;;26.10;99.90;;;;;;4953444;28;20245;-86
2021/09/08 11:18:44;;;;;;;3.47;1.60;;;26.40;99.90;;;;;;4950207;28;20203;-84
2021/09/08 11:21:10;;;;;;;2.43;1.73;;;25.90;99.90;;;;;;4954751;28;20192;-85
2021/09/08 11:23:36;;;;;;;1.10;1.00;;;25.50;99.90;;;;;;4969536;28;20610;-85
2021/09/08 11:26:10;;;;;;;1.30;1.20;;;25.70;99.90;;;;;;4952913;28;20201;-85
2021/09/08 11:28:38;;;;;;;1.60;1.17;;;25.80;99.90;;;;;;4954989;29;20200;-85
2021/09/08 11:31:18;;;;;;;1.83;1.63;;;25.80;99.90;;;;;;4952394;29;20561;-87
2021/09/08 11:33:44;;;;;;;2.33;1.40;;;25.20;99.90;;;;;;4954303;29;20191;-85
2021/09/08 11:36:18;;;;;;;1.33;1.30;;;25.50;99.90;;;;;;4955035;28;20208;-84
2021/09/08 11:38:56;;;;;;;1.10;1.00;;;26.00;99.90;;;;;;4954653;28;20208;-84
2021/09/08 11:41:21;;;;;;;1.57;1.47;;;26.20;99.90;;;;;;4954040;29;20192;-84
2021/09/08 11:43:49;;;;;;;1.77;1.37;;;26.40;99.90;;;;;;4955274;29;20402;-85
2021/09/08 11:46:21;;;;;;;3.43;1.83;;;26.50;99.90;;;;;;4985758;28;20216;-86
2021/09/08 11:48:52;;;;;;;1.37;1.20;;;26.50;99.90;;;;;;4969883;28;20204;-86
2021/09/08 11:51:25;;;;;;;2.70;1.80;;;26.70;99.90;;;;;;4951608;28;20186;-85
2021/09/08 11:53:56;;;;;;;0.80;0.80;;;26.30;99.90;;;;;;4954899;29;20579;-85
2021/09/08 11:56:26;;;;;;;1.10;1.00;;;26.60;99.90;;;;;;4951177;29;20724;-86
2021/09/08 11:59:00;;;;;;;1.53;1.43;;;26.40;99.90;;;;;;4953318;29;20193;-86
2021/09/08 12:01:32;;;;;;;1.23;1.03;;;26.40;99.90;;;;;;4954446;29;20681;-85
2021/09/08 12:03:59;;;;;;;1.73;1.10;;;26.40;99.90;;;;;;4949128;29;20197;-86
2021/09/08 12:06:25;;;;;;;1.67;1.57;;;26.30;99.90;;;;;;4952329;28;20230;-85
2021/09/08 12:08:53;;;;;;;2.37;1.53;;;26.00;99.90;;;;;;4955043;29;20196;-86
2021/09/08 12:11:54;;;;;;;1.00;1.00;;;26.30;99.90;;;;;;4953838;29;20597;-86
2021/09/08 12:14:26;;;;;;;2.13;1.93;;;26.70;99.90;;;;;;4937355;28;20199;-86
2021/09/08 12:16:56;;;;;;;1.37;1.27;;;26.20;99.90;;;;;;4951793;28;20189;-85
2021/09/08 12:19:41;;;;;;;1.20;1.00;;;26.10;99.90;;;;;;4951165;29;20189;-86
2021/09/08 12:22:12;;;;;;;2.47;1.73;;;26.80;99.90;;;;;;4954052;29;20201;-85
2021/09/08 12:24:52;;;;;;;1.40;1.30;;;26.50;99.90;;;;;;4951896;28;20201;-86
2021/09/08 12:27:35;;;;;;;5.00;1.20;;;26.90;99.90;;;;;;4953373;29;20666;-86
2021/09/08 12:30:25;;;;;;;2.07;1.57;;;26.90;99.90;;;;;;4954802;29;20690;-85
2021/09/08 12:33:07;;;;;;;3.00;1.13;;;26.80;99.90;;;;;;4972257;28;20193;-87
2021/09/08 12:35:49;;;;;;;1.77;1.60;;;27.00;99.90;;;;;;4954058;29;20745;-85
2021/09/08 12:38:24;;;;;;;1.77;1.50;;;26.40;99.90;;;;;;4953274;29;20602;-86
2021/09/08 12:41:08;;;;;;;2.07;1.67;;;26.00;99.90;;;;;;4952607;29;20193;-86
2021/09/08 12:43:35;;;;;;;2.23;1.17;;;26.50;99.90;;;;;;4951648;29;20717;-85
2021/09/08 12:46:01;;;;;;;1.23;1.10;;;26.50;99.90;;;;;;4953007;29;20208;-86
2021/09/08 12:48:27;;;;;;;1.73;1.30;;;26.50;99.90;;;;;;4953353;29;20181;-86
2021/09/08 12:50:53;;;;;;;3.33;1.83;;;27.00;99.90;;;;;;4950405;29;20177;-86